Berne, NY (12023)

5:13 PM EST on November 23, 2014 (GMT -0500)
Berne - Fox Creek | Change Station
CLOSE
Current Station
Personal Weather Station
Location: Berne, NY
Elevation: 991 ft
Nearby Weather Stations

Elev 991 ft 42.63 °N, 74.16 °W | Updated 1 minute ago

Overcast
Overcast
47.4 °F
Feels Like 47 °F
N
0.0
Wind Variable Wind from South
Gusts 0.0 mph

Today
High -- | Low -- °F
--% Chance of Precip.
Yesterday
High -- | Low -- °F
Precip. -- in
6:57 AM 4:27 PM
New Moon, 2% visible
Pressure 30.06 in
Visibility 10.0 miles
Clouds Scattered Clouds 6000 ft
Overcast 8500 ft
Windchill 47 °F
Dew Point 34 °F
Humidity 58%
Rainfall -999.00 in
Snow Depth Not available.
UV 0 out of 12
Pollen .10 out of 12
Air Quality Not available.
Flu Activity Not available.
METAR KSCH 232150Z 00000KT 10SM SCT060 OVC085 09/01 A3006

More Conditions Fewer Conditions

Pressure 30.06 in
Visibility 10.0 miles
Clouds Scattered Clouds 6000 ft
Overcast 8500 ft
Windchill 47 °F
Dew Point 34 °F
Humidity 58%
Rainfall -999.00 in
Snow Depth Not available.
UV 0 out of 12
Pollen .10 out of 12
Air Quality Not available.
Flu Activity Not available.
METAR KSCH 232150Z 00000KT 10SM SCT060 OVC085 09/01 A3006

More Conditions Fewer Conditions

10-Day Weather Forecast

Almanac

Astronomy

Nov. 23, 2014 Rise Set
Actual Time
Civil Twilight
Nautical Twilight
Astronomical Twilight
Moon
Length of Visible Light
Length of Day
Tomorrow will be .
, % of the Moon is Illuminated

Today's Extremes

State Highs State Lows

Community

WunderPhotos

Upload Photos

1,773,183 photos uploaded!

WunderBlogs® & News

Nearby

Air Quality

  Air Quality AQ Index Pollutant
Not available.

Snow Depth

Station Depth Elevation

Earthquake Activity

City Distance Mag. Time & Date
Minimum magnitude displayed is 2.5.

Coastal Water Temperatures

Place Temperature

Nearby Weather Stations